Time;durP1;ratioP1;P1;durP2;ratioP2;P2;SDS_P1;SDS_P2;PMS_P1;PMS_P2;Temp;Humidity;BMP_temperature;BMP_pressure;BME280_temperature;BME280_humidity;BME280_pressure;Samples;Min_cycle;Max_cycle;Signal;HPM_P1;HPM_P2
2022/01/15 00:00:55;;;;;;;22.97;10.20;;;-2.00;99.90;;;-1.08;100.00;99608.91;5054076;28;20527;-76
2022/01/15 00:03:24;;;;;;;22.30;11.00;;;-1.90;99.90;;;-1.10;100.00;99613.28;5051401;28;20468;-76
2022/01/15 00:05:56;;;;;;;23.20;11.20;;;-1.90;99.90;;;-1.13;100.00;99613.44;5047340;28;21011;-76
2022/01/15 00:08:26;;;;;;;22.77;9.27;;;-1.90;99.90;;;-1.08;100.00;99615.78;5052864;28;20547;-76
2022/01/15 00:10:57;;;;;;;20.90;9.10;;;-1.90;99.90;;;-1.07;100.00;99613.13;5051375;28;20465;-76
2022/01/15 00:13:28;;;;;;;21.80;9.87;;;-1.90;99.90;;;-1.08;100.00;99605.53;5053038;28;20461;-76
2022/01/15 00:16:08;;;;;;;21.10;9.60;;;-1.90;99.90;;;-1.21;100.00;99605.28;5049039;28;20480;-76
2022/01/15 00:18:45;;;;;;;19.83;9.40;;;-2.10;99.90;;;-1.23;100.00;99601.97;5051702;28;20457;-76
2022/01/15 00:21:16;;;;;;;18.47;9.60;;;-2.10;99.90;;;-1.18;100.00;99600.00;5045546;28;20533;-76
2022/01/15 00:23:46;;;;;;;17.83;8.73;;;-2.00;99.90;;;-1.17;100.00;99600.81;5049819;28;20461;-76
2022/01/15 00:26:16;;;;;;;15.30;8.10;;;-2.00;99.90;;;-1.28;100.00;99601.34;5051638;28;20501;-76
2022/01/15 00:28:46;;;;;;;14.70;7.20;;;-2.10;99.90;;;-1.27;100.00;99597.06;5052616;28;20468;-76
2022/01/15 00:31:16;;;;;;;17.03;7.60;;;-2.10;99.90;;;-1.23;100.00;99601.97;5049964;28;20965;-76
2022/01/15 00:33:46;;;;;;;18.03;8.07;;;-2.00;99.90;;;-1.28;100.00;99598.78;5054334;28;20958;-76
2022/01/15 00:36:17;;;;;;;14.30;6.77;;;-2.10;99.90;;;-1.26;100.00;99593.59;5052442;28;20520;-76
2022/01/15 00:38:48;;;;;;;20.10;7.90;;;-2.10;99.90;;;-1.27;100.00;99597.06;5055072;28;20471;-76
2022/01/15 00:41:18;;;;;;;13.60;6.60;;;-2.10;99.90;;;-1.30;100.00;99594.63;5055204;28;20444;-76
2022/01/15 00:43:49;;;;;;;14.50;7.00;;;-2.20;99.90;;;-1.31;100.00;99587.84;5049919;28;20988;-77
2022/01/15 00:46:18;;;;;;;13.50;7.90;;;-2.10;99.90;;;-1.27;100.00;99582.50;5049454;28;20547;-76
2022/01/15 00:48:48;;;;;;;14.53;7.63;;;-2.10;99.90;;;-1.42;100.00;99579.84;5051607;28;20972;-76
2022/01/15 00:51:19;;;;;;;10.47;6.47;;;-2.20;99.90;;;-1.36;100.00;99575.25;5052783;28;20556;-76
2022/01/15 00:53:50;;;;;;;11.50;6.20;;;-2.20;99.90;;;-1.38;100.00;99578.78;5051578;28;20489;-76
2022/01/15 00:56:20;;;;;;;10.87;6.00;;;-2.20;99.90;;;-1.34;100.00;99577.72;5051435;28;20962;-76
2022/01/15 00:58:52;;;;;;;11.77;6.07;;;-2.10;99.90;;;-1.30;100.00;99568.97;5056133;28;20459;-76
2022/01/15 01:01:21;;;;;;;8.20;5.33;;;-2.10;99.90;;;-1.26;100.00;99576.47;5050386;28;20463;-76
2022/01/15 01:03:51;;;;;;;13.90;6.47;;;-2.00;99.90;;;-1.28;100.00;99575.69;5048722;28;20462;-76
2022/01/15 01:06:22;;;;;;;11.63;5.70;;;-2.10;99.90;;;-1.31;100.00;99575.00;5051019;28;20624;-76
2022/01/15 01:08:51;;;;;;;9.10;5.00;;;-2.10;99.90;;;-1.25;100.00;99572.16;5051848;28;20992;-76
2022/01/15 01:11:31;;;;;;;13.10;5.53;;;-2.00;99.90;;;-1.21;100.00;99581.34;5054466;28;20970;-76
2022/01/15 01:25:16;;;;;;;7.60;5.60;;;-2.10;99.90;;;-1.26;100.00;99578.19;5035972;28;20493;-76
2022/01/15 01:27:49;;;;;;;10.03;5.97;;;-2.10;99.90;;;-1.25;100.00;99578.09;5051677;28;20531;-76
2022/01/15 01:30:23;;;;;;;10.93;5.60;;;-2.10;99.90;;;-1.21;100.00;99583.91;5051702;28;20560;-77
2022/01/15 01:32:58;;;;;;;10.57;5.60;;;-2.00;99.90;;;-1.19;100.00;99577.00;5053824;28;20460;-76
2022/01/15 01:35:36;;;;;;;14.30;6.23;;;-2.00;99.90;;;-1.18;100.00;99582.03;5055257;28;20478;-76
2022/01/15 01:38:15;;;;;;;14.93;4.83;;;-2.00;99.90;;;-1.14;100.00;99575.84;5056268;28;21014;-76
2022/01/15 01:40:48;;;;;;;8.80;5.07;;;-1.90;99.90;;;-1.13;100.00;99572.38;5055604;28;20914;-76
2022/01/15 01:43:44;;;;;;;7.60;4.40;;;-1.90;99.90;;;-1.13;100.00;99566.41;5054066;28;20876;-76
2022/01/15 01:46:29;;;;;;;8.43;5.33;;;-1.90;99.90;;;-1.12;100.00;99566.34;5056569;28;20535;-76
2022/01/15 01:49:14;;;;;;;8.60;5.40;;;-1.90;99.90;;;-1.09;100.00;99567.94;5055679;28;20465;-76
2022/01/15 01:51:44;;;;;;;18.83;5.00;;;-1.90;99.90;;;-1.06;100.00;99560.91;5054345;28;20471;-76
2022/01/15 01:54:18;;;;;;;7.50;5.13;;;-1.70;99.90;;;-1.04;100.00;99568.50;5055542;28;20474;-76
2022/01/15 01:56:48;;;;;;;8.07;4.87;;;-1.50;99.90;;;-1.04;100.00;99571.06;5056616;28;20499;-76
2022/01/15 01:59:18;;;;;;;8.60;5.30;;;-1.60;99.90;;;-1.02;100.00;99569.28;5056234;28;20453;-76
2022/01/15 02:01:47;;;;;;;11.10;5.87;;;-1.60;99.90;;;-1.02;100.00;99570.13;5056578;28;20526;-76
2022/01/15 02:04:18;;;;;;;19.90;6.27;;;-1.60;99.90;;;-0.99;100.00;99576.81;5055934;28;20517;-76
2022/01/15 02:06:48;;;;;;;14.40;4.70;;;-1.70;99.90;;;-1.00;100.00;99577.72;5053584;28;20488;-76
2022/01/15 02:09:23;;;;;;;13.97;5.33;;;-1.80;99.90;;;-1.03;100.00;99568.44;5053215;28;20555;-76
2022/01/15 02:11:52;;;;;;;13.80;4.93;;;-1.80;99.90;;;-1.00;100.00;99570.03;5055235;28;20456;-76
2022/01/15 02:14:29;;;;;;;10.10;5.87;;;-1.70;99.90;;;-0.97;100.00;99571.63;5052973;28;20956;-76
2022/01/15 02:17:00;;;;;;;8.30;4.80;;;-1.60;99.90;;;-0.95;100.00;99572.38;5053126;28;20501;-76
2022/01/15 02:19:33;;;;;;;9.70;5.27;;;-1.60;99.90;;;-0.95;100.00;99570.63;5053044;28;20465;-76
2022/01/15 02:24:51;;;;;;;7.70;4.03;;;-1.60;99.90;;;-0.94;100.00;99572.31;5052976;28;20486;-76
2022/01/15 02:27:20;;;;;;;10.97;5.53;;;-1.60;99.90;;;-0.90;100.00;99571.22;5053734;28;21123;-76
2022/01/15 02:29:49;;;;;;;9.27;5.93;;;-1.60;99.90;;;-0.89;100.00;99565.19;5054467;28;20497;-76
2022/01/15 02:32:19;;;;;;;7.90;4.90;;;-1.50;99.90;;;-0.90;100.00;99565.28;5054139;28;20986;-76
2022/01/15 02:34:51;;;;;;;8.53;4.53;;;-1.60;99.90;;;-0.90;100.00;99571.22;5054374;28;20823;-76
2022/01/15 02:37:20;;;;;;;7.10;4.70;;;-1.60;99.90;;;-0.89;100.00;99560.03;5056060;28;20522;-76
2022/01/15 02:39:50;;;;;;;9.53;5.50;;;-1.40;99.90;;;-0.90;100.00;99563.50;5053325;28;20847;-76
2022/01/15 02:42:20;;;;;;;6.07;4.53;;;-1.50;99.90;;;-0.90;100.00;99567.84;5052013;28;21057;-76
2022/01/15 02:44:58;;;;;;;7.50;5.10;;;-1.60;99.90;;;-0.93;100.00;99561.09;5054280;28;20491;-76
2022/01/15 02:50:16;;;;;;;9.63;5.97;;;-1.50;99.90;;;-0.93;100.00;99561.09;5058085;28;20510;-76
2022/01/15 02:52:46;;;;;;;9.93;5.50;;;-1.60;99.90;;;-0.87;100.00;99560.81;5055377;28;21041;-76
2022/01/15 02:55:16;;;;;;;8.63;5.00;;;-1.50;99.90;;;-0.85;100.00;99553.84;5057684;28;20543;-76
2022/01/15 02:57:45;;;;;;;10.20;5.70;;;-1.50;99.90;;;-0.85;100.00;99553.03;5053536;28;20475;-76
2022/01/15 03:00:18;;;;;;;7.70;4.90;;;-1.50;99.90;;;-0.82;100.00;99551.13;5054426;28;20552;-76
2022/01/15 03:02:49;;;;;;;8.50;4.87;;;-1.50;99.90;;;-0.84;100.00;99552.97;5057003;28;20496;-76
2022/01/15 03:05:24;;;;;;;5.07;4.10;;;-1.50;99.90;;;-0.85;100.00;99546.16;5051791;28;20464;-76
2022/01/15 03:07:53;;;;;;;7.80;4.83;;;-1.50;99.90;;;-0.88;100.00;99546.31;5055573;28;20485;-76
2022/01/15 03:10:23;;;;;;;7.27;5.07;;;-1.60;99.90;;;-0.81;100.00;99536.56;5050931;28;20963;-76
2022/01/15 03:12:54;;;;;;;8.90;4.10;;;-1.40;99.90;;;-0.80;100.00;99548.50;5050871;28;20875;-76
2022/01/15 03:15:25;;;;;;;6.50;4.30;;;-1.40;99.90;;;-0.81;100.00;99549.38;5050054;28;20571;-76
2022/01/15 03:17:55;;;;;;;10.37;5.07;;;-1.50;99.90;;;-0.82;100.00;99545.16;5048416;28;20464;-76
2022/01/15 03:20:26;;;;;;;8.60;5.30;;;-1.40;99.90;;;-0.83;100.00;99544.31;5053523;28;20972;-76
2022/01/15 03:22:55;;;;;;;11.10;4.13;;;-1.40;99.90;;;-0.88;100.00;99540.34;5053765;28;20503;-76
2022/01/15 03:25:24;;;;;;;6.63;4.23;;;-1.50;99.90;;;-0.86;100.00;99538.50;5054236;28;20461;-77
2022/01/15 03:27:54;;;;;;;7.23;4.77;;;-1.40;99.90;;;-0.87;100.00;99542.00;5053298;28;20495;-76
2022/01/15 03:30:24;;;;;;;8.13;4.23;;;-1.40;99.90;;;-0.87;100.00;99535.16;5052698;28;20673;-77
2022/01/15 03:32:53;;;;;;;6.83;4.17;;;-1.40;99.90;;;-0.93;100.00;99532.88;5052898;28;20545;-76
2022/01/15 03:35:24;;;;;;;16.33;4.93;;;-1.60;99.90;;;-0.91;100.00;99527.66;5054075;28;20594;-77
2022/01/15 03:37:53;;;;;;;6.10;4.83;;;-1.50;99.90;;;-0.88;100.00;99530.06;5055022;28;20518;-76
2022/01/15 03:40:24;;;;;;;7.83;4.90;;;-1.50;99.90;;;-0.87;100.00;99524.88;5052147;28;20483;-76
2022/01/15 03:42:53;;;;;;;6.77;4.77;;;-1.50;99.90;;;-0.84;100.00;99522.16;5052345;28;20952;-76
2022/01/15 03:45:23;;;;;;;8.00;5.20;;;-1.50;99.90;;;-0.79;100.00;99534.72;5048963;28;20476;-76
2022/01/15 03:47:56;;;;;;;8.00;4.77;;;-1.50;99.90;;;-0.84;100.00;99527.28;5051736;28;20507;-76
2022/01/15 03:50:29;;;;;;;14.23;5.13;;;-1.50;99.90;;;-0.80;100.00;99536.47;5052502;28;20840;-76
2022/01/15 03:52:59;;;;;;;10.10;5.80;;;-1.40;99.90;;;-0.80;100.00;99528.75;5055668;28;20465;-76
2022/01/15 03:55:28;;;;;;;7.07;4.20;;;-1.40;99.90;;;-0.79;100.00;99532.16;5055041;28;20494;-76
2022/01/15 03:57:59;;;;;;;8.13;5.27;;;-1.50;99.90;;;-0.78;100.00;99526.97;5054367;28;20965;-76
2022/01/15 04:00:30;;;;;;;20.70;5.53;;;-1.50;99.90;;;-0.72;100.00;99528.38;5053641;28;20497;-76
2022/01/15 04:03:03;;;;;;;9.90;4.83;;;-1.30;99.90;;;-0.74;100.00;99528.47;5055796;28;20473;-76
2022/01/15 04:05:34;;;;;;;8.13;4.33;;;-1.30;99.90;;;-0.74;100.00;99520.75;5056782;28;20934;-76
2022/01/15 04:08:04;;;;;;;7.63;4.63;;;-1.20;99.90;;;-0.77;100.00;99515.78;5055340;28;20497;-76
2022/01/15 04:10:35;;;;;;;23.53;5.30;;;-1.30;99.90;;;-0.75;100.00;99513.94;5056844;28;20869;-76
2022/01/15 04:13:04;;;;;;;7.80;4.53;;;-1.30;99.90;;;-0.73;100.00;99513.88;5053863;28;20553;-76
2022/01/15 04:15:35;;;;;;;6.37;4.50;;;-1.30;99.90;;;-0.69;100.00;99515.38;5051045;28;20480;-76
2022/01/15 04:18:05;;;;;;;14.13;5.50;;;-1.30;99.90;;;-0.67;100.00;99509.25;5052886;28;20513;-76
2022/01/15 04:20:36;;;;;;;8.73;5.07;;;-1.30;99.90;;;-0.64;100.00;99513.41;5051408;28;20467;-76
2022/01/15 04:23:06;;;;;;;17.83;5.40;;;-1.30;99.90;;;-0.64;100.00;99506.53;5048905;28;20568;-76
2022/01/15 04:25:36;;;;;;;9.70;5.17;;;-1.20;99.90;;;-0.64;100.00;99503.97;5050601;28;20486;-76
2022/01/15 04:28:09;;;;;;;9.60;5.17;;;-1.30;99.90;;;-0.64;100.00;99506.53;5050116;28;20542;-76
2022/01/15 04:30:42;;;;;;;26.97;6.23;;;-1.30;99.90;;;-0.63;100.00;99515.91;5052587;28;20547;-76
2022/01/15 04:33:12;;;;;;;10.60;5.67;;;-1.20;99.90;;;-0.60;100.00;99514.91;5051848;28;20957;-76
2022/01/15 04:35:44;;;;;;;14.37;5.30;;;-1.20;99.90;;;-0.61;100.00;99502.97;5050738;28;20464;-76
2022/01/15 04:38:15;;;;;;;6.70;4.40;;;-1.20;99.90;;;-0.61;100.00;99505.53;5049357;28;20815;-76
2022/01/15 04:40:45;;;;;;;17.37;5.50;;;-1.10;99.90;;;-0.65;100.00;99497.16;5050066;28;20492;-76
2022/01/15 04:43:15;;;;;;;10.43;4.90;;;-1.00;99.90;;;-0.62;100.00;99498.72;5049603;28;20452;-76
2022/01/15 04:45:45;;;;;;;8.47;4.90;;;-1.20;99.90;;;-0.63;100.00;99490.22;5051152;28;20460;-76
2022/01/15 04:48:14;;;;;;;7.70;4.87;;;-1.30;99.90;;;-0.63;100.00;99494.53;5048313;28;20500;-76
2022/01/15 04:50:46;;;;;;;13.00;5.43;;;-1.20;99.90;;;-0.63;100.00;99495.34;5051551;28;20506;-76
2022/01/15 04:53:16;;;;;;;10.77;5.43;;;-1.10;99.90;;;-0.60;100.00;99505.47;5051393;28;20476;-76
2022/01/15 04:55:45;;;;;;;10.60;6.03;;;-1.00;99.90;;;-0.63;100.00;99489.38;5050187;28;20551;-76
2022/01/15 04:58:15;;;;;;;8.73;5.47;;;-1.00;99.90;;;-0.60;100.00;99492.63;5051216;28;20484;-76
2022/01/15 05:00:46;;;;;;;17.77;5.80;;;-1.20;99.90;;;-0.59;100.00;99501.97;5050844;28;20521;-76
2022/01/15 05:03:17;;;;;;;10.87;4.77;;;-1.20;99.90;;;-0.55;100.00;99498.31;5050596;28;20456;-76
2022/01/15 05:05:48;;;;;;;13.57;5.43;;;-1.00;99.90;;;-0.53;100.00;99511.09;5053693;28;20465;-76
2022/01/15 05:08:17;;;;;;;10.63;4.90;;;-1.10;99.90;;;-0.52;100.00;99502.47;5053732;28;23897;-78
2022/01/15 05:10:48;;;;;;;11.93;5.93;;;-1.10;99.90;;;-0.49;100.00;99502.31;5056026;28;20456;-76
2022/01/15 05:13:21;;;;;;;10.97;5.40;;;-1.10;99.90;;;-0.47;100.00;99504.78;5052715;28;20550;-76
2022/01/15 05:15:50;;;;;;;7.40;5.03;;;-1.00;99.90;;;-0.42;100.00;99492.53;5052148;28;20487;-76
2022/01/15 05:18:20;;;;;;;8.53;5.33;;;-1.10;99.90;;;-0.39;100.00;99492.38;5051584;28;20747;-76
2022/01/15 05:20:52;;;;;;;11.70;4.90;;;-1.10;99.90;;;-0.37;100.00;99491.38;5050369;28;20467;-77
2022/01/15 05:23:21;;;;;;;14.07;6.50;;;-1.00;99.90;;;-0.37;100.00;99480.25;5052255;28;20487;-76
2022/01/15 05:25:51;;;;;;;12.60;5.63;;;-0.80;99.90;;;-0.44;100.00;99491.78;5053669;28;20829;-76
2022/01/15 05:28:21;;;;;;;14.40;5.40;;;-0.90;99.90;;;-0.44;100.00;99479.75;5053370;28;21030;-76
2022/01/15 05:30:51;;;;;;;11.93;6.00;;;-1.00;99.90;;;-0.41;100.00;99478.75;5052352;28;20468;-76
2022/01/15 05:33:20;;;;;;;16.03;6.00;;;-0.90;99.90;;;-0.41;100.00;99478.75;5054563;28;20468;-76
2022/01/15 05:35:52;;;;;;;15.60;5.53;;;-1.00;99.90;;;-0.40;100.00;99463.28;5054095;28;20492;-76
2022/01/15 05:38:22;;;;;;;12.23;6.00;;;-0.90;99.90;;;-0.40;100.00;99459.88;5055240;28;20534;-77
2022/01/15 05:40:53;;;;;;;12.23;5.23;;;-1.00;99.90;;;-0.36;100.00;99462.22;5052211;28;20472;-77
2022/01/15 05:43:22;;;;;;;10.40;6.03;;;-0.90;99.90;;;-0.39;100.00;99456.41;5053777;28;20459;-76
2022/01/15 05:45:51;;;;;;;11.80;6.43;;;-1.00;99.90;;;-0.35;100.00;99457.91;5054272;28;20860;-77
2022/01/15 05:48:21;;;;;;;15.00;5.63;;;-1.00;99.90;;;-0.35;100.00;99463.03;5054012;28;20528;-77
2022/01/15 05:50:52;;;;;;;13.13;6.20;;;-1.00;99.90;;;-0.34;100.00;99459.53;5053375;28;20536;-77
2022/01/15 05:53:22;;;;;;;13.17;6.00;;;-1.00;99.90;;;-0.34;100.00;99459.53;5054400;28;20463;-77
2022/01/15 05:55:51;;;;;;;14.53;5.57;;;-1.00;99.90;;;-0.30;100.00;99461.03;5055508;28;20565;-77
2022/01/15 05:58:20;;;;;;;11.50;6.43;;;-0.90;99.90;;;-0.28;100.00;99460.06;5055664;28;20857;-77
2022/01/15 06:00:49;;;;;;;27.00;14.30;;;-0.90;99.90;;;-0.26;100.00;99457.38;5051664;28;20548;-77
2022/01/15 06:03:19;;;;;;;12.00;6.20;;;-0.90;99.90;;;-0.26;100.00;99454.81;5051910;28;20546;-77
2022/01/15 06:05:51;;;;;;;15.63;6.00;;;-0.90;99.90;;;-0.23;100.00;99463.19;5053502;28;20465;-77
2022/01/15 06:08:19;;;;;;;13.13;6.13;;;-0.80;99.90;;;-0.17;100.00;99464.56;5055184;28;20495;-77
2022/01/15 06:10:49;;;;;;;7.80;5.13;;;-0.80;99.90;;;-0.15;100.00;99470.47;5054442;28;20509;-77
2022/01/15 06:13:18;;;;;;;15.47;5.83;;;-0.80;99.90;;;-0.16;100.00;99463.66;5054597;28;20470;-76
2022/01/15 06:15:47;;;;;;;11.37;6.23;;;-0.80;99.90;;;-0.19;100.00;99463.84;5053470;28;20492;-77
2022/01/15 06:18:17;;;;;;;9.80;5.93;;;-0.80;99.90;;;-0.18;100.00;99461.19;5053096;28;20549;-77
2022/01/15 06:20:47;;;;;;;11.40;5.97;;;-0.80;99.90;;;-0.19;100.00;99453.56;5051344;28;20870;-77
2022/01/15 06:23:18;;;;;;;11.13;5.23;;;-0.80;99.90;;;-0.16;100.00;99463.66;5052278;28;20885;-77
2022/01/15 06:25:47;;;;;;;10.47;6.13;;;-0.80;99.90;;;-0.18;100.00;99462.94;5055391;28;20543;-76
2022/01/15 06:28:17;;;;;;;9.17;4.60;;;-0.80;99.90;;;-0.16;100.00;99461.09;5050763;28;20492;-76
2022/01/15 06:30:47;;;;;;;9.83;5.30;;;-0.80;99.90;;;-0.17;100.00;99451.72;5054379;28;20519;-76
2022/01/15 06:33:17;;;;;;;11.27;5.40;;;-0.80;99.90;;;-0.12;100.00;99442.03;5053277;28;20462;-77
2022/01/15 06:35:48;;;;;;;11.43;5.10;;;-0.80;99.90;;;-0.09;100.00;99447.00;5054867;28;20465;-77
2022/01/15 06:38:18;;;;;;;13.30;6.20;;;-0.80;99.90;;;-0.10;100.00;99438.44;5054211;28;20460;-77
2022/01/15 06:40:48;;;;;;;14.63;6.00;;;-0.80;99.90;;;-0.08;100.00;99446.09;5054232;28;20456;-76
2022/01/15 06:43:17;;;;;;;19.80;6.70;;;-0.80;99.90;;;-0.06;100.00;99439.09;5053014;28;20474;-76
2022/01/15 06:45:47;;;;;;;9.73;5.30;;;-0.60;99.90;;;-0.07;100.00;99447.75;5052680;28;20535;-77
2022/01/15 06:48:18;;;;;;;10.37;5.63;;;-0.70;99.90;;;-0.05;100.00;99440.78;5057581;28;20876;-77
2022/01/15 06:50:47;;;;;;;10.40;5.80;;;-0.60;99.90;;;-0.07;100.00;99440.03;5056324;28;20975;-77
2022/01/15 06:53:19;;;;;;;11.70;5.27;;;-0.70;99.90;;;-0.07;100.00;99455.47;5054928;28;20461;-76
2022/01/15 06:55:52;;;;;;;9.90;5.47;;;-0.70;99.90;;;-0.05;100.00;99448.47;5052909;28;20466;-77
2022/01/15 06:58:25;;;;;;;12.40;5.70;;;-0.80;99.90;;;-0.02;100.00;99443.16;5053017;28;20999;-77
2022/01/15 07:00:55;;;;;;;13.73;6.00;;;-0.70;99.90;;;-0.03;100.00;99444.06;5052534;28;20455;-77
2022/01/15 07:03:25;;;;;;;11.93;5.47;;;-0.70;99.90;;;0.00;100.00;99433.66;5053535;28;20465;-77
2022/01/15 07:05:55;;;;;;;9.77;4.90;;;-0.70;99.90;;;0.02;100.00;99436.94;5051555;28;20461;-77
2022/01/15 07:08:26;;;;;;;8.80;4.40;;;-0.70;99.90;;;0.05;100.00;99433.38;5052872;28;20485;-77
2022/01/15 07:10:56;;;;;;;8.17;4.67;;;-0.60;99.90;;;0.06;100.00;99441.00;5051708;28;20543;-77
2022/01/15 07:13:26;;;;;;;8.30;4.80;;;-0.50;99.90;;;0.01;100.00;99427.56;5054510;28;20930;-77
2022/01/15 07:15:57;;;;;;;9.30;4.37;;;-0.60;99.90;;;0.03;100.00;99427.50;5050682;28;20493;-77
2022/01/15 07:18:26;;;;;;;7.20;3.97;;;-0.50;99.90;;;-0.02;100.00;99425.16;5055710;28;20583;-77
2022/01/15 07:20:57;;;;;;;6.63;3.80;;;-0.60;99.90;;;0.00;100.00;99428.50;5050733;28;20460;-78
2022/01/15 07:23:28;;;;;;;10.73;5.80;;;-0.60;99.90;;;0.02;100.00;99430.97;5052625;28;21014;-77
2022/01/15 07:25:58;;;;;;;8.70;4.83;;;-0.60;99.90;;;0.02;100.00;99431.81;5051591;28;20525;-77
2022/01/15 07:28:30;;;;;;;11.50;5.00;;;-0.60;99.90;;;0.03;100.00;99425.75;5052508;28;20492;-79
2022/01/15 07:31:00;;;;;;;8.00;4.57;;;-0.70;99.90;;;0.06;100.00;99430.72;5050526;28;20823;-77
2022/01/15 07:33:30;;;;;;;8.67;4.50;;;-0.60;99.90;;;0.06;100.00;99432.47;5053584;28;20488;-77
2022/01/15 07:35:59;;;;;;;8.93;4.80;;;-0.60;99.90;;;0.09;100.00;99427.13;5053445;28;20560;-76
2022/01/15 07:38:31;;;;;;;8.27;4.50;;;-0.60;99.90;;;0.11;100.00;99430.44;5051949;28;20843;-77
2022/01/15 07:41:01;;;;;;;8.00;4.57;;;-0.60;99.90;;;0.12;100.00;99432.94;5051530;28;20567;-77
2022/01/15 07:43:31;;;;;;;9.47;5.17;;;-0.60;99.90;;;0.12;100.00;99432.94;5053630;28;20471;-77
2022/01/15 07:46:01;;;;;;;8.47;5.20;;;-0.60;99.90;;;0.12;100.00;99443.22;5049130;28;20485;-77
2022/01/15 07:48:31;;;;;;;10.70;5.00;;;-0.50;99.90;;;0.14;100.00;99440.56;5052039;28;21605;-76
2022/01/15 07:51:00;;;;;;;7.30;4.03;;;-0.50;99.90;;;0.15;100.00;99437.06;5053783;28;20889;-76
2022/01/15 07:53:32;;;;;;;10.13;3.87;;;-0.40;99.90;;;0.16;100.00;99426.72;5052575;28;20460;-77
2022/01/15 07:56:01;;;;;;;9.17;4.27;;;-0.40;99.90;;;0.21;100.00;99436.75;5053354;28;20545;-77
2022/01/15 07:58:31;;;;;;;10.33;4.93;;;-0.40;99.90;;;0.21;100.00;99434.16;5051744;28;20616;-77
2022/01/15 08:01:00;;;;;;;8.33;4.90;;;-0.40;99.90;;;0.24;100.00;99427.09;5054132;28;20554;-77
2022/01/15 08:03:30;;;;;;;7.93;3.90;;;-0.30;99.90;;;0.25;100.00;99433.88;5051542;28;20823;-76
2022/01/15 08:06:01;;;;;;;10.67;4.13;;;-0.40;99.90;;;0.27;100.00;99433.81;5052393;28;20467;-76
2022/01/15 08:08:35;;;;;;;6.57;4.07;;;-0.40;99.90;;;0.27;100.00;99436.38;5049762;28;20565;-77
2022/01/15 08:11:05;;;;;;;8.53;4.93;;;-0.40;99.90;;;0.29;100.00;99430.22;5052505;28;20475;-76
2022/01/15 08:13:35;;;;;;;13.20;5.30;;;-0.40;99.90;;;0.32;100.00;99424.91;5052022;28;20467;-77
2022/01/15 08:16:06;;;;;;;8.20;4.10;;;-0.40;99.90;;;0.32;100.00;99422.31;5051037;28;20950;-77
2022/01/15 08:18:35;;;;;;;10.40;4.50;;;-0.30;99.90;;;0.27;100.00;99426.94;5051355;28;20519;-77
2022/01/15 08:21:05;;;;;;;15.00;4.70;;;-0.40;99.90;;;0.30;100.00;99425.91;5051077;28;20596;-77
2022/01/15 08:23:38;;;;;;;7.43;4.07;;;-0.30;99.90;;;0.31;100.00;99420.66;5051468;28;20980;-77
2022/01/15 08:26:08;;;;;;;6.47;4.17;;;-0.30;99.90;;;0.32;100.00;99424.06;5052026;28;20462;-77
2022/01/15 08:28:38;;;;;;;10.87;5.20;;;-0.30;99.90;;;0.32;100.00;99419.75;5053662;28;20504;-77
2022/01/15 08:31:08;;;;;;;8.87;4.90;;;-0.30;99.90;;;0.32;100.00;99416.34;5049088;28;20463;-77
2022/01/15 08:33:38;;;;;;;6.80;4.30;;;-0.20;99.90;;;0.35;100.00;99417.00;5051715;28;20544;-77
2022/01/15 08:36:09;;;;;;;4.87;3.30;;;-0.20;99.90;;;0.34;100.00;99415.38;5049973;28;20469;-77
2022/01/15 08:38:40;;;;;;;7.93;4.40;;;-0.20;99.90;;;0.39;100.00;99415.06;5051435;28;20468;-77
2022/01/15 08:41:25;;;;;;;8.70;5.00;;;-0.10;99.90;;;0.38;100.00;99423.72;5051886;28;21152;-77
2022/01/15 08:43:56;;;;;;;9.53;4.60;;;-0.20;99.90;;;0.36;100.00;99421.22;5052270;28;20448;-77
2022/01/15 08:46:26;;;;;;;7.67;4.60;;;-0.20;99.90;;;0.40;100.00;99422.72;5046422;28;20491;-77
2022/01/15 08:48:57;;;;;;;8.03;5.17;;;-0.20;99.90;;;0.41;100.00;99426.94;5048349;28;21063;-77
2022/01/15 08:51:26;;;;;;;7.70;4.53;;;-0.20;99.90;;;0.43;100.00;99425.09;5050793;28;20474;-77
2022/01/15 08:53:57;;;;;;;10.10;4.70;;;-0.20;99.90;;;0.47;100.00;99428.31;5051028;28;20552;-77
2022/01/15 08:56:26;;;;;;;6.87;3.90;;;-0.20;99.90;;;0.50;100.00;99421.25;5050458;28;20467;-77
2022/01/15 08:58:56;;;;;;;9.73;4.60;;;-0.10;99.90;;;0.47;100.00;99418.88;5049649;28;20471;-77
2022/01/15 09:01:25;;;;;;;10.17;4.77;;;-0.10;99.90;;;0.48;100.00;99415.38;5049857;28;20553;-77
2022/01/15 09:03:57;;;;;;;12.70;5.57;;;-0.10;99.90;;;0.52;100.00;99415.22;5053927;28;20473;-77
2022/01/15 09:06:27;;;;;;;10.53;4.27;;;-0.10;99.90;;;0.57;100.00;99414.00;5051635;28;20519;-77
2022/01/15 09:08:58;;;;;;;9.83;5.20;;;0.00;99.90;;;0.60;100.00;99421.53;5051372;28;21149;-77
2022/01/15 09:11:28;;;;;;;8.37;4.70;;;0.00;99.90;;;0.64;100.00;99414.47;5046925;28;20466;-77
2022/01/15 09:13:57;;;;;;;5.80;3.30;;;0.10;99.90;;;0.66;100.00;99418.59;5050248;28;20583;-77
2022/01/15 09:16:27;;;;;;;7.50;4.40;;;0.10;99.90;;;0.69;100.00;99415.88;5046672;28;20549;-77
2022/01/15 09:18:58;;;;;;;5.23;3.73;;;0.10;99.90;;;0.70;100.00;99412.34;5050045;28;20466;-79
2022/01/15 09:21:27;;;;;;;8.30;6.03;;;0.10;99.90;;;0.74;100.00;99410.41;5050025;28;20467;-76
2022/01/15 09:23:58;;;;;;;11.13;5.17;;;0.10;99.90;;;0.77;100.00;99405.09;5051387;28;20467;-77
2022/01/15 09:26:47;;;;;;;10.37;4.67;;;0.10;99.90;;;0.79;100.00;99403.25;5048404;28;20469;-77
2022/01/15 09:32:08;;;;;;;10.67;4.23;;;0.20;99.90;;;0.79;100.00;99406.66;5049839;28;20464;-77
2022/01/15 09:34:39;;;;;;;6.60;4.37;;;0.30;99.90;;;0.84;100.00;99414.94;5046981;28;20463;-77
2022/01/15 09:37:08;;;;;;;7.10;4.60;;;0.20;99.90;;;0.86;100.00;99407.97;5051592;28;20467;-77
2022/01/15 09:39:40;;;;;;;8.07;4.63;;;0.20;99.90;;;0.89;100.00;99394.06;5047796;28;21093;-77
2022/01/15 09:42:12;;;;;;;9.50;4.73;;;0.30;99.90;;;0.90;100.00;99398.31;5049543;28;20467;-77
2022/01/15 09:44:42;;;;;;;8.43;4.57;;;0.20;99.90;;;0.92;100.00;99391.28;5043779;28;20492;-77
2022/01/15 09:47:14;;;;;;;11.37;5.00;;;0.40;99.90;;;0.95;100.00;99394.50;5048261;28;20496;-77
2022/01/15 09:49:53;;;;;;;9.70;5.87;;;0.40;99.90;;;0.93;100.00;99388.66;5049546;28;20480;-77
2022/01/15 09:52:23;;;;;;;9.73;5.17;;;0.30;99.90;;;0.96;100.00;99385.06;5049488;28;20585;-77
2022/01/15 09:54:54;;;;;;;12.27;5.93;;;0.40;99.90;;;0.97;100.00;99384.94;5053197;28;20577;-77
2022/01/15 09:57:24;;;;;;;10.03;5.67;;;0.40;99.90;;;1.02;100.00;99384.66;5053635;28;20459;-77
2022/01/15 09:59:53;;;;;;;9.00;4.70;;;0.40;99.90;;;1.04;100.00;99388.00;5052310;28;20456;-77
2022/01/15 10:02:21;;;;;;;8.93;5.33;;;0.50;99.90;;;1.06;100.00;99383.56;5055239;28;20477;-77
2022/01/15 10:04:52;;;;;;;10.20;5.13;;;0.50;99.90;;;1.06;100.00;99382.72;5058570;28;20533;-77
2022/01/15 10:07:27;;;;;;;9.17;5.03;;;0.50;99.90;;;1.05;100.00;99381.91;5054316;28;20856;-77
2022/01/15 10:10:14;;;;;;;8.20;4.70;;;0.40;99.90;;;1.09;100.00;99375.63;5057559;28;20484;-77
2022/01/15 10:12:44;;;;;;;9.63;4.10;;;0.40;99.90;;;1.10;100.00;99379.03;5053666;28;20948;-77
2022/01/15 10:15:17;;;;;;;7.27;4.33;;;0.40;99.90;;;1.15;100.00;99375.25;5054842;28;20630;-77
2022/01/15 10:17:47;;;;;;;8.73;3.93;;;0.50;99.90;;;1.14;100.00;99373.63;5057252;28;20978;-77
2022/01/15 10:20:23;;;;;;;6.17;4.23;;;0.50;99.90;;;1.18;100.00;99369.91;5057169;28;20471;-77
2022/01/15 10:22:54;;;;;;;9.47;4.30;;;0.50;99.90;;;1.19;100.00;99361.25;5057328;28;20862;-77
2022/01/15 10:25:24;;;;;;;14.17;4.73;;;0.60;99.90;;;1.22;100.00;99360.25;5057975;28;20464;-77
2022/01/15 10:27:56;;;;;;;11.97;5.50;;;0.70;99.90;;;1.20;100.00;99360.34;5058420;28;20445;-77
2022/01/15 10:30:30;;;;;;;9.33;4.73;;;0.60;99.90;;;1.24;100.00;99355.84;5057211;28;20548;-77
2022/01/15 10:33:03;;;;;;;8.03;4.70;;;0.70;99.90;;;1.28;100.00;99355.56;5058265;28;20458;-77
2022/01/15 10:35:36;;;;;;;9.20;5.70;;;0.80;99.90;;;1.31;100.00;99341.66;5057526;28;20448;-77
2022/01/15 10:38:09;;;;;;;7.93;4.80;;;0.80;99.90;;;1.31;100.00;99341.66;5057126;28;20455;-77
2022/01/15 10:40:47;;;;;;;13.97;5.07;;;0.70;99.90;;;1.31;100.00;99334.75;5057199;28;20455;-77
2022/01/15 10:43:20;;;;;;;8.93;4.27;;;0.70;99.90;;;1.29;100.00;99333.19;5057536;28;20455;-77
2022/01/15 10:45:51;;;;;;;15.27;4.67;;;0.60;99.90;;;1.36;100.00;99331.84;5057400;28;21288;-77
2022/01/15 10:48:27;;;;;;;7.03;4.80;;;0.70;99.90;;;1.41;100.00;99340.97;5058445;28;20507;-77